sensor_id;sensor_type;location;lat;lon;timestamp;P1;durP1;ratioP1;P2;durP2;ratioP2
35223;SDS011;21367;51.930;8.112;2023-04-03T00:00:12;7.63;;;1.45;;
35223;SDS011;21367;51.930;8.112;2023-04-03T00:05:41;8.88;;;1.27;;
35223;SDS011;21367;51.930;8.112;2023-04-03T00:10:53;6.25;;;1.25;;
35223;SDS011;21367;51.930;8.112;2023-04-03T00:15:59;6.32;;;1.23;;
35223;SDS011;21367;51.930;8.112;2023-04-03T00:32:52;9.48;;;1.13;;
35223;SDS011;21367;51.930;8.112;2023-04-03T00:38:50;3.72;;;1.08;;
35223;SDS011;21367;51.930;8.112;2023-04-03T00:50:08;7.65;;;1.40;;
35223;SDS011;21367;51.930;8.112;2023-04-03T00:55:15;9.70;;;1.50;;
35223;SDS011;21367;51.930;8.112;2023-04-03T01:01:12;7.22;;;1.58;;
35223;SDS011;21367;51.930;8.112;2023-04-03T01:06:23;6.05;;;1.48;;
35223;SDS011;21367;51.930;8.112;2023-04-03T01:11:51;6.15;;;1.60;;
35223;SDS011;21367;51.930;8.112;2023-04-03T01:18:10;7.53;;;1.55;;
35223;SDS011;21367;51.930;8.112;2023-04-03T01:23:46;8.73;;;1.58;;
35223;SDS011;21367;51.930;8.112;2023-04-03T01:29:25;6.57;;;1.40;;
35223;SDS011;21367;51.930;8.112;2023-04-03T01:34:41;7.82;;;1.60;;
35223;SDS011;21367;51.930;8.112;2023-04-03T01:39:47;5.25;;;1.40;;
35223;SDS011;21367;51.930;8.112;2023-04-03T01:44:51;6.38;;;1.63;;
35223;SDS011;21367;51.930;8.112;2023-04-03T01:49:58;14.65;;;2.33;;
35223;SDS011;21367;51.930;8.112;2023-04-03T01:55:07;11.18;;;1.58;;
35223;SDS011;21367;51.930;8.112;2023-04-03T02:00:13;8.23;;;1.52;;
35223;SDS011;21367;51.930;8.112;2023-04-03T02:05:21;8.30;;;1.60;;
35223;SDS011;21367;51.930;8.112;2023-04-03T02:10:25;9.48;;;1.52;;
35223;SDS011;21367;51.930;8.112;2023-04-03T02:15:30;6.67;;;1.23;;
35223;SDS011;21367;51.930;8.112;2023-04-03T02:20:38;10.52;;;1.50;;
35223;SDS011;21367;51.930;8.112;2023-04-03T02:25:44;19.38;;;4.30;;
35223;SDS011;21367;51.930;8.112;2023-04-03T02:30:49;9.88;;;1.67;;
35223;SDS011;21367;51.930;8.112;2023-04-03T02:35:56;5.40;;;1.52;;
35223;SDS011;21367;51.930;8.112;2023-04-03T02:41:01;6.30;;;1.10;;
35223;SDS011;21367;51.930;8.112;2023-04-03T02:46:06;14.40;;;1.92;;
35223;SDS011;21367;51.930;8.112;2023-04-03T02:51:13;11.55;;;1.95;;
35223;SDS011;21367;51.930;8.112;2023-04-03T02:56:18;14.57;;;1.75;;
35223;SDS011;21367;51.930;8.112;2023-04-03T03:01:22;6.53;;;1.20;;
35223;SDS011;21367;51.930;8.112;2023-04-03T03:06:35;9.77;;;1.77;;
35223;SDS011;21367;51.930;8.112;2023-04-03T03:11:39;12.55;;;1.67;;
35223;SDS011;21367;51.930;8.112;2023-04-03T03:16:44;9.82;;;1.90;;
35223;SDS011;21367;51.930;8.112;2023-04-03T03:21:50;9.57;;;1.48;;
35223;SDS011;21367;51.930;8.112;2023-04-03T03:26:56;15.80;;;1.98;;
35223;SDS011;21367;51.930;8.112;2023-04-03T03:32:00;10.05;;;1.40;;
35223;SDS011;21367;51.930;8.112;2023-04-03T03:37:07;14.27;;;2.00;;
35223;SDS011;21367;51.930;8.112;2023-04-03T03:42:11;11.73;;;1.80;;
35223;SDS011;21367;51.930;8.112;2023-04-03T03:47:16;10.18;;;1.70;;
35223;SDS011;21367;51.930;8.112;2023-04-03T03:52:25;7.80;;;1.50;;
35223;SDS011;21367;51.930;8.112;2023-04-03T03:57:31;8.73;;;1.65;;
35223;SDS011;21367;51.930;8.112;2023-04-03T04:02:35;14.38;;;2.30;;
35223;SDS011;21367;51.930;8.112;2023-04-03T04:07:42;9.68;;;2.50;;
35223;SDS011;21367;51.930;8.112;2023-04-03T04:12:46;7.97;;;2.22;;
35223;SDS011;21367;51.930;8.112;2023-04-03T04:17:55;11.45;;;1.92;;
35223;SDS011;21367;51.930;8.112;2023-04-03T04:23:02;8.88;;;2.00;;
35223;SDS011;21367;51.930;8.112;2023-04-03T04:28:07;12.50;;;1.67;;
35223;SDS011;21367;51.930;8.112;2023-04-03T04:33:12;8.85;;;2.35;;
35223;SDS011;21367;51.930;8.112;2023-04-03T04:38:21;8.65;;;2.25;;
35223;SDS011;21367;51.930;8.112;2023-04-03T04:43:27;8.48;;;1.70;;
35223;SDS011;21367;51.930;8.112;2023-04-03T04:48:32;5.78;;;1.75;;
35223;SDS011;21367;51.930;8.112;2023-04-03T04:59:06;7.93;;;1.75;;
35223;SDS011;21367;51.930;8.112;2023-04-03T05:04:11;9.98;;;1.83;;
35223;SDS011;21367;51.930;8.112;2023-04-03T05:09:36;14.70;;;2.42;;
35223;SDS011;21367;51.930;8.112;2023-04-03T05:14:43;8.55;;;1.55;;
35223;SDS011;21367;51.930;8.112;2023-04-03T05:19:47;14.50;;;1.80;;
35223;SDS011;21367;51.930;8.112;2023-04-03T05:30:18;9.68;;;1.90;;
35223;SDS011;21367;51.930;8.112;2023-04-03T05:35:23;12.35;;;2.67;;
35223;SDS011;21367;51.930;8.112;2023-04-03T05:40:33;13.55;;;1.98;;
35223;SDS011;21367;51.930;8.112;2023-04-03T05:45:37;12.85;;;2.25;;
35223;SDS011;21367;51.930;8.112;2023-04-03T05:50:41;12.95;;;2.33;;
35223;SDS011;21367;51.930;8.112;2023-04-03T05:55:55;10.80;;;2.45;;
35223;SDS011;21367;51.930;8.112;2023-04-03T06:00:59;13.60;;;2.50;;
35223;SDS011;21367;51.930;8.112;2023-04-03T06:06:03;12.20;;;2.22;;
35223;SDS011;21367;51.930;8.112;2023-04-03T06:11:11;12.38;;;2.55;;
35223;SDS011;21367;51.930;8.112;2023-04-03T06:16:15;13.15;;;2.58;;
35223;SDS011;21367;51.930;8.112;2023-04-03T06:21:21;11.30;;;2.00;;
35223;SDS011;21367;51.930;8.112;2023-04-03T06:31:47;12.90;;;2.30;;
35223;SDS011;21367;51.930;8.112;2023-04-03T06:36:52;15.57;;;2.33;;
35223;SDS011;21367;51.930;8.112;2023-04-03T06:41:59;13.10;;;2.03;;
35223;SDS011;21367;51.930;8.112;2023-04-03T06:47:11;11.13;;;1.85;;
35223;SDS011;21367;51.930;8.112;2023-04-03T06:52:16;6.68;;;1.80;;
35223;SDS011;21367;51.930;8.112;2023-04-03T06:57:24;13.13;;;2.38;;
35223;SDS011;21367;51.930;8.112;2023-04-03T07:02:27;15.25;;;1.90;;
35223;SDS011;21367;51.930;8.112;2023-04-03T07:07:31;15.90;;;2.13;;
35223;SDS011;21367;51.930;8.112;2023-04-03T07:12:38;11.20;;;1.67;;
35223;SDS011;21367;51.930;8.112;2023-04-03T07:17:42;12.10;;;1.65;;
35223;SDS011;21367;51.930;8.112;2023-04-03T07:22:46;5.95;;;1.38;;
35223;SDS011;21367;51.930;8.112;2023-04-03T07:27:53;5.72;;;1.40;;
35223;SDS011;21367;51.930;8.112;2023-04-03T07:32:58;5.18;;;1.25;;
35223;SDS011;21367;51.930;8.112;2023-04-03T07:38:03;11.50;;;1.27;;
35223;SDS011;21367;51.930;8.112;2023-04-03T07:43:10;13.57;;;1.83;;
35223;SDS011;21367;51.930;8.112;2023-04-03T07:48:14;4.97;;;1.33;;
35223;SDS011;21367;51.930;8.112;2023-04-03T07:53:18;9.82;;;1.40;;
35223;SDS011;21367;51.930;8.112;2023-04-03T07:58:26;7.47;;;1.73;;
35223;SDS011;21367;51.930;8.112;2023-04-03T08:03:31;12.60;;;1.63;;
35223;SDS011;21367;51.930;8.112;2023-04-03T08:08:36;7.43;;;1.27;;
35223;SDS011;21367;51.930;8.112;2023-04-03T08:13:43;7.60;;;1.35;;
35223;SDS011;21367;51.930;8.112;2023-04-03T08:18:47;9.38;;;1.45;;
35223;SDS011;21367;51.930;8.112;2023-04-03T08:23:51;8.20;;;1.50;;
35223;SDS011;21367;51.930;8.112;2023-04-03T08:28:59;6.93;;;1.13;;
35223;SDS011;21367;51.930;8.112;2023-04-03T08:34:03;9.63;;;1.25;;
35223;SDS011;21367;51.930;8.112;2023-04-03T08:39:07;6.28;;;1.08;;
35223;SDS011;21367;51.930;8.112;2023-04-03T08:49:25;11.13;;;1.10;;
35223;SDS011;21367;51.930;8.112;2023-04-03T08:54:32;5.60;;;1.33;;
35223;SDS011;21367;51.930;8.112;2023-04-03T08:59:41;10.30;;;1.08;;
35223;SDS011;21367;51.930;8.112;2023-04-03T09:04:46;2.08;;;0.70;;
35223;SDS011;21367;51.930;8.112;2023-04-03T09:09:50;5.35;;;1.08;;
35223;SDS011;21367;51.930;8.112;2023-04-03T09:15:01;7.32;;;1.02;;
35223;SDS011;21367;51.930;8.112;2023-04-03T09:20:13;6.35;;;0.88;;
35223;SDS011;21367;51.930;8.112;2023-04-03T09:25:24;7.55;;;1.13;;
35223;SDS011;21367;51.930;8.112;2023-04-03T09:30:34;9.43;;;2.10;;
35223;SDS011;21367;51.930;8.112;2023-04-03T09:35:38;5.22;;;1.10;;
35223;SDS011;21367;51.930;8.112;2023-04-03T09:45:56;2.25;;;0.88;;
35223;SDS011;21367;51.930;8.112;2023-04-03T09:51:20;12.93;;;1.02;;
35223;SDS011;21367;51.930;8.112;2023-04-03T09:56:30;6.32;;;1.48;;
35223;SDS011;21367;51.930;8.112;2023-04-03T10:01:38;6.55;;;0.90;;
35223;SDS011;21367;51.930;8.112;2023-04-03T10:06:45;7.97;;;1.00;;
35223;SDS011;21367;51.930;8.112;2023-04-03T10:11:58;4.70;;;1.25;;
35223;SDS011;21367;51.930;8.112;2023-04-03T10:17:13;8.10;;;1.45;;
35223;SDS011;21367;51.930;8.112;2023-04-03T10:22:22;6.05;;;1.40;;
35223;SDS011;21367;51.930;8.112;2023-04-03T10:27:39;7.32;;;1.40;;
35223;SDS011;21367;51.930;8.112;2023-04-03T10:32:57;6.43;;;0.90;;
35223;SDS011;21367;51.930;8.112;2023-04-03T10:38:08;2.55;;;0.82;;
35223;SDS011;21367;51.930;8.112;2023-04-03T10:43:22;5.00;;;0.77;;
35223;SDS011;21367;51.930;8.112;2023-04-03T10:48:43;11.38;;;1.23;;
35223;SDS011;21367;51.930;8.112;2023-04-03T10:53:57;2.63;;;0.60;;
35223;SDS011;21367;51.930;8.112;2023-04-03T10:59:11;3.08;;;0.75;;
35223;SDS011;21367;51.930;8.112;2023-04-03T11:04:23;4.30;;;1.13;;
35223;SDS011;21367;51.930;8.112;2023-04-03T11:09:31;4.25;;;0.98;;
35223;SDS011;21367;51.930;8.112;2023-04-03T11:14:39;5.68;;;1.05;;
35223;SDS011;21367;51.930;8.112;2023-04-03T11:19:47;5.30;;;1.10;;
35223;SDS011;21367;51.930;8.112;2023-04-03T11:24:57;10.02;;;1.20;;
35223;SDS011;21367;51.930;8.112;2023-04-03T11:30:07;6.85;;;1.30;;
35223;SDS011;21367;51.930;8.112;2023-04-03T11:35:23;4.57;;;1.02;;
35223;SDS011;21367;51.930;8.112;2023-04-03T11:40:29;3.55;;;0.65;;
35223;SDS011;21367;51.930;8.112;2023-04-03T11:45:36;8.23;;;1.17;;
35223;SDS011;21367;51.930;8.112;2023-04-03T11:50:56;3.10;;;0.90;;
35223;SDS011;21367;51.930;8.112;2023-04-03T11:56:02;8.27;;;1.05;;
35223;SDS011;21367;51.930;8.112;2023-04-03T12:01:08;5.47;;;1.20;;
35223;SDS011;21367;51.930;8.112;2023-04-03T12:11:59;5.18;;;1.10;;
35223;SDS011;21367;51.930;8.112;2023-04-03T12:17:26;7.70;;;1.10;;
35223;SDS011;21367;51.930;8.112;2023-04-03T12:22:32;6.03;;;1.20;;
35223;SDS011;21367;51.930;8.112;2023-04-03T12:27:41;6.90;;;1.00;;
35223;SDS011;21367;51.930;8.112;2023-04-03T12:32:48;8.10;;;1.30;;
35223;SDS011;21367;51.930;8.112;2023-04-03T12:38:15;4.63;;;1.15;;
35223;SDS011;21367;51.930;8.112;2023-04-03T12:43:42;5.18;;;1.20;;
35223;SDS011;21367;51.930;8.112;2023-04-03T12:48:58;6.75;;;1.02;;
35223;SDS011;21367;51.930;8.112;2023-04-03T12:54:03;5.20;;;1.50;;
35223;SDS011;21367;51.930;8.112;2023-04-03T12:59:20;7.70;;;1.40;;
35223;SDS011;21367;51.930;8.112;2023-04-03T13:04:25;3.33;;;1.25;;
35223;SDS011;21367;51.930;8.112;2023-04-03T13:09:32;7.50;;;1.75;;
35223;SDS011;21367;51.930;8.112;2023-04-03T13:14:38;11.57;;;1.30;;
35223;SDS011;21367;51.930;8.112;2023-04-03T13:19:43;10.52;;;2.40;;
35223;SDS011;21367;51.930;8.112;2023-04-03T13:24:48;3.42;;;0.93;;
35223;SDS011;21367;51.930;8.112;2023-04-03T13:29:58;13.27;;;1.02;;
35223;SDS011;21367;51.930;8.112;2023-04-03T13:40:30;4.55;;;0.85;;
35223;SDS011;21367;51.930;8.112;2023-04-03T13:45:52;5.82;;;1.15;;
35223;SDS011;21367;51.930;8.112;2023-04-03T13:50:59;5.95;;;1.40;;
35223;SDS011;21367;51.930;8.112;2023-04-03T13:56:06;5.72;;;1.30;;
35223;SDS011;21367;51.930;8.112;2023-04-03T14:01:17;9.88;;;1.10;;
35223;SDS011;21367;51.930;8.112;2023-04-03T14:06:24;6.15;;;1.17;;
35223;SDS011;21367;51.930;8.112;2023-04-03T14:11:30;7.13;;;1.10;;
35223;SDS011;21367;51.930;8.112;2023-04-03T14:21:57;4.03;;;1.23;;
35223;SDS011;21367;51.930;8.112;2023-04-03T14:27:02;8.30;;;1.48;;
35223;SDS011;21367;51.930;8.112;2023-04-03T14:32:18;9.80;;;1.10;;
35223;SDS011;21367;51.930;8.112;2023-04-03T14:37:24;7.10;;;1.60;;
35223;SDS011;21367;51.930;8.112;2023-04-03T14:42:30;6.68;;;1.40;;
35223;SDS011;21367;51.930;8.112;2023-04-03T14:47:39;4.43;;;1.40;;
35223;SDS011;21367;51.930;8.112;2023-04-03T14:52:49;3.17;;;1.30;;
35223;SDS011;21367;51.930;8.112;2023-04-03T14:57:54;4.15;;;1.02;;
35223;SDS011;21367;51.930;8.112;2023-04-03T15:03:00;6.20;;;1.20;;
35223;SDS011;21367;51.930;8.112;2023-04-03T15:13:08;7.78;;;1.33;;
35223;SDS011;21367;51.930;8.112;2023-04-03T15:18:16;2.67;;;1.00;;
35223;SDS011;21367;51.930;8.112;2023-04-03T15:23:22;7.20;;;1.40;;
35223;SDS011;21367;51.930;8.112;2023-04-03T15:28:30;5.15;;;1.40;;
35223;SDS011;21367;51.930;8.112;2023-04-03T15:33:38;6.20;;;1.67;;
35223;SDS011;21367;51.930;8.112;2023-04-03T15:38:42;3.47;;;1.08;;
35223;SDS011;21367;51.930;8.112;2023-04-03T15:43:46;5.93;;;2.05;;
35223;SDS011;21367;51.930;8.112;2023-04-03T15:48:52;4.35;;;1.15;;
35223;SDS011;21367;51.930;8.112;2023-04-03T15:53:55;8.30;;;1.60;;
35223;SDS011;21367;51.930;8.112;2023-04-03T15:58:59;5.40;;;1.10;;
35223;SDS011;21367;51.930;8.112;2023-04-03T16:04:06;5.38;;;1.10;;
35223;SDS011;21367;51.930;8.112;2023-04-03T16:09:11;3.70;;;1.17;;
35223;SDS011;21367;51.930;8.112;2023-04-03T16:14:15;5.93;;;1.13;;
35223;SDS011;21367;51.930;8.112;2023-04-03T16:19:21;5.10;;;1.42;;
35223;SDS011;21367;51.930;8.112;2023-04-03T16:24:25;6.90;;;1.33;;
35223;SDS011;21367;51.930;8.112;2023-04-03T16:29:32;6.68;;;1.42;;
35223;SDS011;21367;51.930;8.112;2023-04-03T16:34:39;7.18;;;1.30;;
35223;SDS011;21367;51.930;8.112;2023-04-03T16:39:43;7.72;;;2.03;;
35223;SDS011;21367;51.930;8.112;2023-04-03T16:44:47;7.40;;;1.20;;
35223;SDS011;21367;51.930;8.112;2023-04-03T16:49:54;3.90;;;1.35;;
35223;SDS011;21367;51.930;8.112;2023-04-03T16:54:58;8.70;;;1.92;;
35223;SDS011;21367;51.930;8.112;2023-04-03T17:00:02;3.97;;;1.40;;
35223;SDS011;21367;51.930;8.112;2023-04-03T17:05:10;8.73;;;1.33;;
35223;SDS011;21367;51.930;8.112;2023-04-03T17:10:14;5.45;;;1.25;;
35223;SDS011;21367;51.930;8.112;2023-04-03T17:15:17;10.05;;;1.20;;
35223;SDS011;21367;51.930;8.112;2023-04-03T17:20:24;11.77;;;1.30;;
35223;SDS011;21367;51.930;8.112;2023-04-03T17:25:28;6.40;;;1.42;;
35223;SDS011;21367;51.930;8.112;2023-04-03T17:30:31;6.15;;;1.27;;
35223;SDS011;21367;51.930;8.112;2023-04-03T17:35:38;8.98;;;1.55;;
35223;SDS011;21367;51.930;8.112;2023-04-03T17:40:41;5.18;;;1.05;;
35223;SDS011;21367;51.930;8.112;2023-04-03T17:45:45;5.05;;;1.50;;
35223;SDS011;21367;51.930;8.112;2023-04-03T17:50:51;3.55;;;1.20;;
35223;SDS011;21367;51.930;8.112;2023-04-03T17:55:55;2.95;;;1.05;;
35223;SDS011;21367;51.930;8.112;2023-04-03T18:00:59;8.88;;;1.30;;
35223;SDS011;21367;51.930;8.112;2023-04-03T18:06:13;9.88;;;2.50;;
35223;SDS011;21367;51.930;8.112;2023-04-03T18:11:18;7.05;;;1.63;;
35223;SDS011;21367;51.930;8.112;2023-04-03T18:16:26;6.75;;;2.13;;
35223;SDS011;21367;51.930;8.112;2023-04-03T18:21:33;6.50;;;1.33;;
35223;SDS011;21367;51.930;8.112;2023-04-03T18:26:37;7.35;;;1.70;;
35223;SDS011;21367;51.930;8.112;2023-04-03T18:31:43;5.43;;;1.60;;
35223;SDS011;21367;51.930;8.112;2023-04-03T18:36:52;7.65;;;2.58;;
35223;SDS011;21367;51.930;8.112;2023-04-03T18:41:56;10.43;;;4.28;;
35223;SDS011;21367;51.930;8.112;2023-04-03T18:47:02;10.65;;;3.58;;
35223;SDS011;21367;51.930;8.112;2023-04-03T18:52:10;15.32;;;3.60;;
35223;SDS011;21367;51.930;8.112;2023-04-03T18:57:13;12.48;;;2.22;;
35223;SDS011;21367;51.930;8.112;2023-04-03T19:02:18;5.15;;;1.75;;
35223;SDS011;21367;51.930;8.112;2023-04-03T19:07:27;6.80;;;1.95;;
35223;SDS011;21367;51.930;8.112;2023-04-03T19:12:31;9.23;;;1.90;;
35223;SDS011;21367;51.930;8.112;2023-04-03T19:17:35;7.80;;;2.78;;
35223;SDS011;21367;51.930;8.112;2023-04-03T19:22:42;4.18;;;1.58;;
35223;SDS011;21367;51.930;8.112;2023-04-03T19:27:46;11.07;;;2.03;;
35223;SDS011;21367;51.930;8.112;2023-04-03T19:32:50;9.60;;;1.98;;
35223;SDS011;21367;51.930;8.112;2023-04-03T19:37:57;13.65;;;2.67;;
35223;SDS011;21367;51.930;8.112;2023-04-03T19:43:01;10.60;;;2.65;;
35223;SDS011;21367;51.930;8.112;2023-04-03T19:48:05;6.05;;;2.45;;
35223;SDS011;21367;51.930;8.112;2023-04-03T19:53:12;13.00;;;2.60;;
35223;SDS011;21367;51.930;8.112;2023-04-03T19:58:18;8.48;;;2.58;;
35223;SDS011;21367;51.930;8.112;2023-04-03T20:03:22;7.93;;;2.10;;
35223;SDS011;21367;51.930;8.112;2023-04-03T20:08:31;14.85;;;1.88;;
35223;SDS011;21367;51.930;8.112;2023-04-03T20:13:36;7.70;;;2.40;;
35223;SDS011;21367;51.930;8.112;2023-04-03T20:18:41;9.35;;;2.65;;
35223;SDS011;21367;51.930;8.112;2023-04-03T20:23:47;10.32;;;2.85;;
35223;SDS011;21367;51.930;8.112;2023-04-03T20:28:52;10.43;;;2.88;;
35223;SDS011;21367;51.930;8.112;2023-04-03T20:33:57;10.77;;;2.17;;
35223;SDS011;21367;51.930;8.112;2023-04-03T20:39:04;11.18;;;2.75;;
35223;SDS011;21367;51.930;8.112;2023-04-03T20:44:08;26.02;;;6.32;;
35223;SDS011;21367;51.930;8.112;2023-04-03T20:49:11;16.58;;;3.90;;
35223;SDS011;21367;51.930;8.112;2023-04-03T20:54:18;11.82;;;3.20;;
35223;SDS011;21367;51.930;8.112;2023-04-03T20:59:22;7.72;;;2.00;;
35223;SDS011;21367;51.930;8.112;2023-04-03T21:04:28;9.23;;;2.05;;
35223;SDS011;21367;51.930;8.112;2023-04-03T21:20:47;5.43;;;2.60;;
35223;SDS011;21367;51.930;8.112;2023-04-03T21:25:52;11.57;;;2.25;;
35223;SDS011;21367;51.930;8.112;2023-04-03T21:30:56;10.02;;;4.03;;
35223;SDS011;21367;51.930;8.112;2023-04-03T21:36:02;10.55;;;3.13;;
35223;SDS011;21367;51.930;8.112;2023-04-03T21:41:06;12.40;;;3.05;;
35223;SDS011;21367;51.930;8.112;2023-04-03T21:46:10;10.07;;;3.00;;
35223;SDS011;21367;51.930;8.112;2023-04-03T21:51:18;15.45;;;3.08;;
35223;SDS011;21367;51.930;8.112;2023-04-03T21:56:22;11.27;;;2.80;;
35223;SDS011;21367;51.930;8.112;2023-04-03T22:01:26;5.18;;;2.63;;
35223;SDS011;21367;51.930;8.112;2023-04-03T22:06:34;10.20;;;3.10;;
35223;SDS011;21367;51.930;8.112;2023-04-03T22:11:39;8.55;;;3.00;;
35223;SDS011;21367;51.930;8.112;2023-04-03T22:16:45;12.43;;;3.47;;
35223;SDS011;21367;51.930;8.112;2023-04-03T22:21:52;8.02;;;2.83;;
35223;SDS011;21367;51.930;8.112;2023-04-03T22:26:56;10.07;;;3.22;;
35223;SDS011;21367;51.930;8.112;2023-04-03T22:32:00;8.05;;;2.80;;
35223;SDS011;21367;51.930;8.112;2023-04-03T22:37:07;7.78;;;2.72;;
35223;SDS011;21367;51.930;8.112;2023-04-03T22:42:13;7.80;;;2.75;;
35223;SDS011;21367;51.930;8.112;2023-04-03T22:47:17;8.93;;;2.83;;
35223;SDS011;21367;51.930;8.112;2023-04-03T22:52:24;11.52;;;2.80;;
35223;SDS011;21367;51.930;8.112;2023-04-03T22:57:28;6.93;;;2.50;;
35223;SDS011;21367;51.930;8.112;2023-04-03T23:02:32;9.68;;;2.58;;
35223;SDS011;21367;51.930;8.112;2023-04-03T23:07:39;8.70;;;2.17;;
35223;SDS011;21367;51.930;8.112;2023-04-03T23:12:43;9.98;;;2.20;;
35223;SDS011;21367;51.930;8.112;2023-04-03T23:17:46;7.72;;;2.70;;
35223;SDS011;21367;51.930;8.112;2023-04-03T23:22:54;9.40;;;3.03;;
35223;SDS011;21367;51.930;8.112;2023-04-03T23:27:58;11.48;;;3.53;;
35223;SDS011;21367;51.930;8.112;2023-04-03T23:33:03;19.70;;;4.72;;
35223;SDS011;21367;51.930;8.112;2023-04-03T23:38:09;18.38;;;7.07;;
35223;SDS011;21367;51.930;8.112;2023-04-03T23:43:13;22.38;;;8.93;;
35223;SDS011;21367;51.930;8.112;2023-04-03T23:48:17;18.65;;;9.25;;
35223;SDS011;21367;51.930;8.112;2023-04-03T23:53:24;21.25;;;8.98;;
35223;SDS011;21367;51.930;8.112;2023-04-03T23:58:28;16.17;;;6.97;;
